Latest Weather Observations for Thargomindah

IDQ60801

Issued at 9:13 pm EST Saturday 9 May 2026 (issued every 10 minutes, with the page automatically refreshed every 10 minutes)

About weather observations | Map of weather stations | Latest weather observations for QLD | Other Formats
Station Details ID: 045025 Name: THARGOMINDAH AIRPORT Lat: -27.99 Lon: 143.81 Height: 130.89 m
Data from the previous 72 hours. | See also: Recent months at Thargomindah
Date/Time
EST
Temp
°C
App
Temp
°C
Dew
Point
°C
Rel
Hum
%
Delta-T
°C
Wind Press
QNH
hPa
Press
MSL
hPa
Rain since
9am
mm
Dir  Spd
km/h
Gust
km/h
Spd
kts
Gust
kts
09/09:00pm 16.9 13.6 6.4 50 5.2 SSE 13 17 7 9 1024.5 1024.3 0.0
09/08:30pm 17.3 14.0 6.5 49 5.4 SSE 13 17 7 9 1024.3 1024.1 0.0
09/08:00pm 17.6 14.3 6.5 48 5.5 SSE 13 15 7 8 1024.1 1023.9 0.0
09/07:30pm 18.3 15.0 6.2 45 6.0 SSE 13 15 7 8 1024.1 1023.9 0.0
09/07:00pm 18.7 15.7 6.2 44 6.2 SSE 11 15 6 8 1024.1 1023.9 0.0
09/06:30pm 19.1 16.1 6.2 43 6.4 SSE 11 15 6 8 1023.8 1023.6 0.0
09/06:00pm 19.9 16.5 5.9 40 7.0 SSE 13 17 7 9 1023.6 1023.4 0.0
09/05:30pm 20.9 16.7 5.7 37 7.6 SSE 17 22 9 12 1023.4 1023.2 0.0
09/05:00pm 21.4 16.9 6.1 37 7.7 SSE 19 28 10 15 1022.9 1022.7 0.0
09/04:30pm 22.1 17.4 5.9 35 8.2 S 20 26 11 14 1022.7 1022.5 0.0
09/04:00pm 22.3 17.9 6.5 36 8.1 SSE 19 28 10 15 1022.6 1022.4 0.0
09/03:30pm 21.9 18.1 5.8 35 8.1 SE 15 24 8 13 1022.8 1022.6 0.0
09/03:00pm 22.1 18.8 6.3 36 8.0 SE 13 20 7 11 1023.1 1022.9 0.0
09/02:30pm 22.2 18.5 6.4 36 8.1 SSE 15 24 8 13 1023.5 1023.3 0.0
09/02:00pm 21.1 17.4 6.2 38 7.5 SE 15 22 8 12 1023.6 1023.4 0.0
09/01:30pm 20.7 16.6 6.3 39 7.3 SE 17 22 9 12 1023.8 1023.6 0.0
09/01:00pm 20.1 16.1 6.8 42 6.7 SE 17 30 9 16 1024.4 1024.2 0.0
09/12:30pm 19.9 16.1 7.6 45 6.3 SE 17 26 9 14 1024.9 1024.7 0.0
09/12:00pm 19.1 15.4 7.8 48 5.8 ESE 17 24 9 13 1025.3 1025.1 0.0
09/11:30am 19.0 15.6 7.8 48 5.8 ESE 15 26 8 14 1025.8 1025.6 0.0
09/11:00am 18.5 14.7 7.6 49 5.5 ESE 17 24 9 13 1026.4 1026.1 0.0
09/10:30am 18.3 14.7 8.3 52 5.2 ESE 17 24 9 13 1026.7 1026.4 0.0
09/10:00am 17.2 13.6 8.4 56 4.5 ESE 17 24 9 13 1026.9 1026.6 0.0
09/09:30am 16.0 12.4 8.2 60 4.0 SE 17 20 9 11 1026.8 1026.5 0.0
09/09:00am 14.3 10.7 8.5 68 2.9 SE 17 24 9 13 1026.6 1026.3 0.0
09/08:30am 12.9 8.9 8.4 74 2.3 SE 19 24 10 13 1026.4 1026.1 0.0
09/08:00am 11.9 8.6 8.2 78 1.8 SSE 15 20 8 11 1026.2 1025.9 0.0
09/07:30am 10.9 8.0 8.0 82 1.4 SE 13 19 7 10 1025.8 1025.6 0.0
09/07:00am 10.3 7.3 7.7 84 1.3 SSE 13 19 7 10 1025.5 1025.3 0.0
09/06:30am 9.9 7.6 7.5 85 1.2 SSE 9 11 5 6 1025.3 1025.1 0.0
09/06:00am 10.2 7.9 7.4 83 1.3 SSE 9 11 5 6 1024.9 1024.7 0.0
09/05:30am 10.5 8.2 7.4 81 1.5 SSE 9 11 5 6 1024.8 1024.6 0.0
09/05:00am 10.9 8.6 7.6 80 1.6 SE 9 11 5 6 1024.7 1024.5 0.0
09/04:30am 11.3 8.7 7.6 78 1.8 SE 11 15 6 8 1024.6 1024.4 0.0
09/04:00am 11.1 8.8 7.6 79 1.7 SSE 9 13 5 7 1024.6 1024.4 0.0
09/03:30am 11.0 8.7 7.3 78 1.8 SE 9 9 5 5 1024.8 1024.6 0.0
09/03:00am 11.0 8.7 7.3 78 1.8 SSE 9 11 5 6 1024.8 1024.6 0.0
09/02:30am 11.3 8.9 7.2 76 2.0 SSE 9 11 5 6 1024.9 1024.7 0.0
09/02:00am 11.5 9.1 7.0 74 2.2 SSE 9 9 5 5 1025.0 1024.8 0.0
09/01:30am 12.1 9.3 7.0 71 2.5 SSE 11 11 6 6 1025.0 1024.8 0.0
09/01:00am 12.4 10.0 6.9 69 2.6 SSE 9 11 5 6 1025.2 1025.0 0.0
09/12:30am 13.1 9.9 6.7 65 3.1 SSE 13 15 7 8 1025.2 1025.0 0.0
09/12:00am 13.6 10.0 6.7 63 3.3 S 15 20 8 11 1025.5 1025.3 0.0
 
Date/Time
EST
Temp
°C
App
Temp
°C
Dew
Point
°C
Rel
Hum
%
Delta-T
°C
Wind Press
QNH
hPa
Press
MSL
hPa
Rain since
9am
mm
Dir  Spd
km/h
Gust
km/h
Spd
kts
Gust
kts
08/11:30pm 13.8 9.7 6.2 60 3.7 SSE 17 22 9 12 1025.5 1025.3 0.0
08/11:00pm 13.9 10.1 5.8 58 3.8 S 15 19 8 10 1025.7 1025.5 0.0
08/10:30pm 14.1 10.6 5.5 56 4.1 S 13 17 7 9 1026.0 1025.7 0.0
08/10:00pm 13.9 10.4 5.5 57 4.0 S 13 13 7 7 1026.0 1025.7 0.0
08/09:30pm 14.5 11.3 5.3 54 4.4 S 11 13 6 7 1026.0 1025.7 0.0
08/09:00pm 14.9 11.7 5.1 52 4.6 S 11 15 6 8 1025.8 1025.6 0.0
08/08:30pm 15.3 12.0 4.7 49 5.0 S 11 13 6 7 1025.6 1025.4 0.0
08/08:00pm 15.7 12.4 4.4 47 5.3 S 11 13 6 7 1025.4 1025.2 0.0
08/07:30pm 15.9 12.6 4.3 46 5.4 S 11 13 6 7 1025.2 1025.0 0.0
08/07:00pm 16.4 13.4 4.1 44 5.7 S 9 11 5 6 1025.1 1024.9 0.0
08/06:30pm 17.3 14.2 3.6 40 6.4 S 9 11 5 6 1024.8 1024.6 0.0
08/06:00pm 18.0 14.0 3.1 37 6.9 SSE 13 17 7 9 1024.5 1024.3 0.0
08/05:30pm 18.8 13.7 3.0 35 7.4 S 19 24 10 13 1024.3 1024.1 0.0
08/05:00pm 19.2 14.8 2.6 33 7.7 SSE 15 20 8 11 1024.2 1024.0 0.0
08/04:30pm 19.2 13.9 2.1 32 7.9 SSE 19 24 10 13 1024.1 1023.9 0.0
08/04:00pm 19.9 14.7 2.7 32 8.0 S 19 24 10 13 1024.3 1024.1 0.0
08/03:30pm 19.5 14.0 1.9 31 8.1 SSE 20 32 11 17 1024.5 1024.3 0.0
08/03:00pm 19.8 14.5 1.7 30 8.3 SSE 19 26 10 14 1024.4 1024.2 0.0
08/02:30pm 18.9 13.2 0.5 29 8.2 SSE 20 28 11 15 1024.6 1024.4 0.0
08/02:00pm 19.0 14.0 1.1 30 8.0 SSE 17 28 9 15 1024.8 1024.6 0.0
08/01:30pm 18.7 13.2 0.3 29 8.1 SSE 19 26 10 14 1025.2 1025.0 0.0
08/01:00pm 18.4 12.7 0.5 30 7.9 SE 20 33 11 18 1026.0 1025.7 0.0
08/12:30pm 17.6 11.9 0.7 32 7.5 SE 20 30 11 16 1026.6 1026.3 0.0
08/12:00pm 17.3 11.7 0.9 33 7.2 SSE 20 33 11 18 1027.1 1026.9 0.0
08/11:30am 16.5 10.4 0.6 34 6.9 SE 22 35 12 19 1027.5 1027.3 0.0
08/11:00am 15.9 9.5 0.9 36 6.5 SE 24 33 13 18 1027.8 1027.6 0.0
08/10:30am 15.1 8.7 0.9 38 6.2 SE 24 33 13 18 1028.1 1027.9 0.0
08/10:00am 14.3 7.5 0.9 40 5.7 SE 26 39 14 21 1028.3 1028.1 0.0
08/09:30am 13.6 8.1 0.6 41 5.5 SE 19 35 10 19 1028.2 1028.0 0.0
08/09:00am 12.0 6.9 0.8 46 4.7 SE 17 22 9 12 1028.2 1028.0 0.0
08/08:30am 10.3 5.1 0.3 50 4.1 SE 17 24 9 13 1028.0 1027.8 0.0
08/08:00am 9.1 4.6 -0.2 52 3.7 SSE 13 19 7 10 1027.7 1027.5 0.0
08/07:30am 7.9 3.7 -0.6 55 3.3 SSE 11 15 6 8 1027.5 1027.3 0.0
08/07:00am 6.3 2.6 0.2 65 2.4 SSE 9 9 5 5 1027.4 1027.2 0.0
08/06:30am 6.7 2.9 -1.0 58 2.9 SSE 9 11 5 6 1027.3 1027.1 0.0
08/06:00am 6.6 3.3 -0.1 62 2.6 SSE 7 9 4 5 1027.1 1026.9 0.0
08/05:30am 7.0 3.7 -0.2 60 2.8 SSE 7 9 4 5 1026.9 1026.6 0.0
08/05:00am 7.5 4.1 -0.7 56 3.2 SSE 7 9 4 5 1026.8 1026.5 0.0
08/04:30am 8.0 4.1 -1.2 52 3.5 SSE 9 11 5 6 1026.7 1026.4 0.0
08/04:00am 8.3 4.4 -1.5 50 3.7 SSE 9 13 5 7 1026.5 1026.2 0.0
08/03:30am 8.5 3.9 -1.3 50 3.8 SSE 13 15 7 8 1026.2 1025.9 0.0
08/03:00am 8.5 4.2 -1.3 50 3.8 SSE 11 13 6 7 1026.5 1026.2 0.0
08/02:30am 8.8 4.6 -0.8 51 3.8 SSE 11 15 6 8 1026.4 1026.1 0.0
08/02:00am 9.1 5.3 -0.8 50 3.9 SSE 9 11 5 6 1026.4 1026.1 0.0
08/01:30am 9.3 5.9 -0.6 50 3.9 S 7 9 4 5 1026.5 1026.2 0.0
08/01:00am 9.8 6.0 -0.7 48 4.1 SSE 9 11 5 6 1026.4 1026.1 0.0
08/12:30am 10.3 6.1 -0.8 46 4.4 SSE 11 13 6 7 1026.7 1026.4 0.0
08/12:00am 10.5 6.7 -0.9 45 4.5 SSE 9 11 5 6 1026.9 1026.6 0.0
 
Date/Time
EST
Temp
°C
App
Temp
°C
Dew
Point
°C
Rel
Hum
%
Delta-T
°C
Wind Press
QNH
hPa
Press
MSL
hPa
Rain since
9am
mm
Dir  Spd
km/h
Gust
km/h
Spd
kts
Gust
kts
07/11:30pm 11.0 7.2 -0.8 44 4.7 SSE 9 13 5 7 1026.9 1026.6 0.0
07/11:00pm 12.0 7.1 -0.8 41 5.2 SSE 15 19 8 10 1026.9 1026.6 0.0
07/10:30pm 12.2 7.8 0.3 44 5.0 SSE 13 17 7 9 1026.8 1026.5 0.0
07/10:00pm 12.5 8.1 0.3 43 5.1 SSE 13 17 7 9 1026.8 1026.5 0.0
07/09:30pm 13.1 9.1 0.2 41 5.4 SE 11 15 6 8 1026.6 1026.3 0.0
07/09:00pm 13.8 9.0 0.1 39 5.7 SSE 15 22 8 12 1026.3 1026.0 0.0
07/08:30pm 14.4 8.9 0.3 38 6.0 SSE 19 24 10 13 1026.1 1025.8 0.0
07/08:00pm 14.8 9.6 0.3 37 6.2 SSE 17 24 9 13 1025.6 1025.4 0.0
07/07:30pm 15.6 9.6 1.0 37 6.4 SSE 22 32 12 17 1025.2 1025.0 0.0
07/07:00pm 16.0 11.5 4.1 45 5.5 SSE 17 24 9 13 1024.7 1024.5 0.0
07/06:30pm 16.6 11.8 5.6 48 5.3 SSE 20 28 11 15 1024.1 1023.9 0.0
07/06:00pm 17.3 12.4 4.9 44 5.9 SSE 20 28 11 15 1023.6 1023.4 0.0
07/05:30pm 17.9 12.6 4.8 42 6.3 SSE 22 30 12 16 1023.1 1022.9 0.0
07/05:00pm 18.5 13.4 6.0 44 6.2 SSE 22 32 12 17 1022.9 1022.7 0.0
07/04:30pm 19.2 13.7 6.0 42 6.6 S 24 28 13 15 1022.8 1022.6 0.0
07/04:00pm 19.5 14.2 6.9 44 6.4 SSE 24 35 13 19 1022.6 1022.4 0.0
07/03:30pm 20.1 14.4 6.5 41 6.9 S 26 35 14 19 1022.5 1022.3 0.0
07/03:00pm 20.1 14.4 6.8 42 6.7 SSE 26 39 14 21 1022.5 1022.3 0.0
07/02:30pm 20.2 15.2 7.9 45 6.4 S 24 37 13 20 1022.5 1022.3 0.0
07/02:00pm 20.4 15.2 7.1 42 6.8 SSE 24 33 13 18 1022.6 1022.4 0.0
07/01:30pm 20.2 14.3 7.6 44 6.5 S 28 41 15 22 1023.0 1022.8 0.0
07/01:00pm 20.8 15.3 7.4 42 6.9 SSE 26 35 14 19 1023.2 1023.0 0.0
07/12:30pm 19.8 14.4 6.5 42 6.7 SSE 24 33 13 18 1023.5 1023.3 0.0
07/12:00pm 19.6 14.2 6.4 42 6.6 SSE 24 35 13 19 1023.9 1023.7 0.0
07/11:30am 19.4 14.4 6.5 43 6.5 SSE 22 37 12 20 1024.3 1024.1 0.0
07/11:00am 18.7 13.0 6.9 46 5.9 SSE 26 41 14 22 1024.5 1024.3 0.0
07/10:30am 18.7 12.7 6.9 46 6.0 SSE 28 37 15 20 1024.7 1024.5 0.0
07/10:00am 17.8 12.9 7.0 49 5.4 SE 22 32 12 17 1024.8 1024.6 0.0
07/09:30am 16.2 14.3 7.7 57 4.3 SE 7 13 4 7 1024.8 1024.6 0.0
07/09:00am 14.2 12.4 7.9 66 3.1 SE 7 13 4 7 1024.6 1024.4 0.0
07/08:30am 12.8 11.2 7.9 72 2.4 SE 6 9 3 5 1024.2 1024.0 0.0
07/08:00am 12.2 10.0 7.9 75 2.1 S 9 13 5 7 1023.7 1023.5 0.0
07/07:30am 11.3 9.7 7.8 79 1.7 SSE 6 7 3 4 1023.3 1023.1 0.0
07/07:00am 10.7 8.5 7.8 82 1.4 S 9 11 5 6 1022.9 1022.7 0.0
07/06:30am 10.8 8.9 7.5 80 1.6 S 7 9 4 5 1022.4 1022.2 0.0
07/06:00am 10.7 8.5 7.8 82 1.4 S 9 9 5 5 1022.2 1022.0 0.0
07/05:30am 11.0 9.2 7.9 81 1.5 S 7 9 4 5 1021.9 1021.7 0.0
07/05:00am 11.3 9.4 7.6 78 1.8 S 7 9 4 5 1021.6 1021.4 0.0
07/04:30am 11.4 8.8 7.9 79 1.7 S 11 13 6 7 1021.4 1021.2 0.0
07/04:00am 11.4 9.3 8.1 80 1.6 S 9 11 5 6 1021.5 1021.3 0.0
07/03:30am 11.6 9.8 7.9 78 1.8 S 7 9 4 5 1021.6 1021.4 0.0
07/03:00am 12.0 9.8 7.9 76 2.0 SSW 9 11 5 6 1021.6 1021.4 0.0
07/02:30am 12.6 10.0 7.9 73 2.3 S 11 13 6 7 1021.6 1021.4 0.0
07/02:00am 13.3 11.1 7.7 69 2.8 SSE 9 11 5 6 1021.8 1021.6 0.0
07/01:30am 13.8 10.8 7.6 66 3.1 SSE 13 17 7 9 1021.8 1021.6 0.0
07/01:00am 13.8 11.2 7.6 66 3.1 S 11 15 6 8 1021.9 1021.7 0.0
07/12:30am 14.0 11.3 7.5 65 3.2 S 11 13 6 7 1021.9 1021.7 0.0
07/12:00am 14.5 11.8 7.5 63 3.5 SSW 11 13 6 7 1021.9 1021.7 0.0
 
Date/Time
EST
Temp
°C
App
Temp
°C
Dew
Point
°C
Rel
Hum
%
Delta-T
°C
Wind Press
QNH
hPa
Press
MSL
hPa
Rain since
9am
mm
Dir  Spd
km/h
Gust
km/h
Spd
kts
Gust
kts
06/11:30pm 15.2 12.5 7.3 59 3.9 S 11 15 6 8 1021.8 1021.6 0.0
06/11:00pm 16.0 12.1 7.0 55 4.5 S 17 20 9 11 1021.7 1021.5 0.0
06/10:30pm 16.3 12.0 7.0 54 4.6 S 19 22 10 12 1021.7 1021.5 0.0
06/10:00pm 16.5 12.9 6.9 53 4.8 SSW 15 19 8 10 1021.9 1021.7 0.0
06/09:30pm 16.7 13.6 7.1 53 4.8 S 13 15 7 8 1021.7 1021.5 0.0

Other formats

Comma delimited format used in spreadsheet applications
http://www.bom.gov.au/fwo/IDQ60801/IDQ60801.95492.axf

JavaScript Object Notation format (JSON) in row-major order
http://www.bom.gov.au/fwo/IDQ60801/IDQ60801.95492.json

Data quality

Most of these data are generated automatically and are frequently updated. Quality checks on data are not normally performed. It is possible for incorrect values to appear. Refer to information at About Latest Weather Observations and please check the disclaimer before using these data.